Time;durP1;ratioP1;P1;durP2;ratioP2;P2;SDS_P1;SDS_P2;PMS_P1;PMS_P2;Temp;Humidity;BMP_temperature;BMP_pressure;BME280_temperature;BME280_humidity;BME280_pressure;Samples;Min_cycle;Max_cycle;Signal;HPM_P1;HPM_P2
2022/03/05 00:00:31;;;;;;;0.40;0.40;;;;;;;6.99;67.29;95047.16;5135860;27;20514;-57
2022/03/05 00:03:00;;;;;;;0.40;0.30;;;;;;;6.61;67.75;95013.13;5136203;27;20430;-57
2022/03/05 00:05:29;;;;;;;0.30;0.20;;;;;;;6.73;68.02;95040.09;5136338;27;20504;-56
2022/03/05 00:07:57;;;;;;;0.30;0.20;;;;;;;6.89;68.44;95035.72;5135461;27;20454;-56
2022/03/05 00:10:25;;;;;;;0.40;0.33;;;;;;;6.71;69.36;95042.19;5136011;27;20493;-56
2022/03/05 00:12:54;;;;;;;0.50;0.43;;;;;;;6.16;72.57;95039.84;5136486;27;20454;-56
2022/03/05 00:15:23;;;;;;;0.30;0.20;;;;;;;6.27;73.83;95041.53;5136042;27;20509;-56
2022/03/05 00:17:54;;;;;;;0.30;0.20;;;;;;;6.36;70.27;95029.53;5135565;27;20494;-56
2022/03/05 00:20:24;;;;;;;0.60;0.60;;;;;;;6.62;71.35;95042.91;5136046;27;20427;-56
2022/03/05 00:22:53;;;;;;;0.33;0.33;;;;;;;6.12;74.53;95027.44;5135682;27;20600;-56
2022/03/05 00:25:22;;;;;;;0.30;0.30;;;;;;;6.51;73.01;95046.47;5135910;27;20510;-56
2022/03/05 00:27:51;;;;;;;0.33;0.33;;;;;;;6.70;71.38;95045.88;5137972;27;20845;-56
2022/03/05 00:30:21;;;;;;;0.30;0.20;;;;;;;6.42;75.28;95043.53;5136500;27;20861;-57
2022/03/05 00:32:50;;;;;;;0.50;0.50;;;;;;;6.43;73.17;95046.94;5136940;27;20850;-56
2022/03/05 00:35:20;;;;;;;0.30;0.20;;;;;;;6.53;73.93;95050.44;5136043;27;20431;-56
2022/03/05 00:37:49;;;;;;;0.30;0.20;;;;;;;6.60;74.62;95047.63;5137344;27;21021;-56
2022/03/05 00:40:18;;;;;;;0.47;0.37;;;;;;;6.71;77.11;95049.28;5135892;27;20430;-56
2022/03/05 00:42:46;;;;;;;0.50;0.40;;;;;;;6.39;78.39;95033.50;5135596;27;20458;-56
2022/03/05 00:45:15;;;;;;;0.93;0.93;;;;;;;6.30;82.12;95040.22;5135416;27;20431;-57
2022/03/05 00:47:44;;;;;;;0.30;0.20;;;;;;;6.24;83.36;95047.31;5135728;27;20461;-56
2022/03/05 00:50:12;;;;;;;7.40;1.43;;;;;;;5.95;86.21;95039.88;5135370;27;20522;-56
2022/03/05 00:52:43;;;;;;;1.00;1.00;;;;;;;5.88;88.40;95042.72;5136345;27;20505;-56
2022/03/05 00:55:11;;;;;;;0.67;0.67;;;;;;;5.66;89.11;95034.00;5136366;27;20505;-56
2022/03/05 00:57:40;;;;;;;0.97;0.97;;;;;;;5.53;90.36;95039.63;5135645;27;20430;-56
2022/03/05 01:00:12;;;;;;;0.63;0.63;;;;;;;5.03;88.58;94960.97;5135942;27;20435;-56
2022/03/05 01:02:41;;;;;;;0.77;0.77;;;;;;;5.65;88.48;95030.59;5135684;27;20458;-56
2022/03/05 01:05:11;;;;;;;0.53;0.53;;;;;;;5.78;85.97;95032.84;5135395;27;20428;-56
2022/03/05 01:07:39;;;;;;;0.93;0.93;;;;;;;5.63;87.41;95034.50;5135973;27;20435;-56
2022/03/05 01:10:10;;;;;;;0.63;0.63;;;;;;;5.68;89.29;95035.34;5135749;27;20624;-56
2022/03/05 01:12:38;;;;;;;0.70;0.70;;;;;;;5.53;86.56;95034.38;5135468;27;20467;-56
2022/03/05 01:15:09;;;;;;;0.50;0.50;;;;;;;5.47;87.58;95036.13;5135692;27;20500;-55
2022/03/05 01:17:37;;;;;;;0.30;0.20;;;;;;;5.49;87.82;95038.53;5135665;27;20415;-56
2022/03/05 01:20:08;;;;;;;0.63;0.57;;;;;;;4.75;86.64;94938.28;5135696;27;20427;-56
2022/03/05 01:22:37;;;;;;;5.40;0.40;;;;;;;5.13;88.84;95009.16;5135813;27;20474;-57
2022/03/05 01:25:06;;;;;;;0.40;0.40;;;;;;;5.32;90.03;95041.19;5134527;27;20470;-55
2022/03/05 01:27:36;;;;;;;0.53;0.53;;;;;;;5.09;92.39;95029.06;5134712;27;20515;-55
2022/03/05 01:30:05;;;;;;;0.50;0.43;;;;;;;4.99;91.71;95015.78;5135099;27;20431;-56
2022/03/05 01:32:33;;;;;;;1.03;1.03;;;;;;;5.62;85.45;95038.16;5135056;27;20519;-56
2022/03/05 01:35:02;;;;;;;0.30;0.20;;;;;;;5.84;82.60;95031.06;5134505;27;20430;-56
2022/03/05 01:37:30;;;;;;;0.30;0.20;;;;;;;5.70;81.15;95016.69;5134431;27;20497;-56
2022/03/05 01:39:59;;;;;;;0.33;0.30;;;;;;;5.86;81.84;95023.75;5134942;27;20513;-56
2022/03/05 01:42:27;;;;;;;1.27;1.27;;;;;;;5.95;80.82;95024.09;5133754;27;20919;-56
2022/03/05 01:44:57;;;;;;;0.30;0.20;;;;;;;5.76;82.72;95028.88;5134671;27;20443;-56
2022/03/05 01:47:26;;;;;;;0.47;0.47;;;;;;;6.01;80.78;95026.53;5134327;27;20513;-56
2022/03/05 01:49:54;;;;;;;0.30;0.20;;;;;;;6.30;78.15;95022.63;5134385;27;20505;-56
2022/03/05 01:52:23;;;;;;;0.30;0.20;;;;;;;6.34;76.62;95017.66;5134561;27;20549;-56
2022/03/05 01:54:51;;;;;;;0.37;0.37;;;;;;;6.23;76.61;95014.13;5133665;27;20462;-56
2022/03/05 01:57:20;;;;;;;0.33;0.27;;;;;;;6.05;77.98;95011.84;5133471;27;20422;-56
2022/03/05 01:59:49;;;;;;;0.50;0.50;;;;;;;5.90;81.91;95018.78;5133940;27;20442;-55
2022/03/05 02:02:19;;;;;;;1.80;0.50;;;;;;;5.87;81.98;95014.03;5134118;27;20466;-56
2022/03/05 02:04:47;;;;;;;0.40;0.40;;;;;;;6.12;81.16;95017.69;5133230;27;20851;-56
2022/03/05 02:07:17;;;;;;;1.63;1.57;;;;;;;6.20;80.64;95019.09;5131871;27;20522;-56
2022/03/05 02:09:45;;;;;;;0.30;0.20;;;;;;;6.18;81.21;95014.09;5132609;27;20431;-56
2022/03/05 02:12:13;;;;;;;1.50;1.50;;;;;;;6.21;81.26;95008.34;5133674;27;21041;-56
2022/03/05 02:14:42;;;;;;;0.30;0.20;;;;;;;6.17;81.34;94998.56;5133968;27;20518;-56
2022/03/05 02:17:11;;;;;;;0.63;0.60;;;;;;;6.20;81.48;95009.34;5132892;27;20426;-55
2022/03/05 02:19:41;;;;;;;0.50;0.50;;;;;;;5.72;82.58;94948.88;5133336;27;20426;-56
2022/03/05 02:22:11;;;;;;;0.30;0.20;;;;;;;6.30;80.47;95013.91;5132770;27;20516;-55
2022/03/05 02:24:40;;;;;;;0.60;0.60;;;;;;;6.27;81.88;95009.94;5133479;27;20437;-55
2022/03/05 02:27:10;;;;;;;0.47;0.43;;;;;;;5.73;82.06;94926.81;5133596;27;20423;-54
2022/03/05 02:29:39;;;;;;;1.10;0.40;;;;;;;5.83;83.23;94960.31;5132213;27;20452;-54
2022/03/05 02:32:08;;;;;;;2.03;2.03;;;;;;;6.01;86.06;95021.28;5133321;27;21014;-55
2022/03/05 02:34:36;;;;;;;0.93;0.93;;;;;;;5.90;88.98;95030.09;5133305;27;20431;-56
2022/03/05 02:37:06;;;;;;;0.33;0.27;;;;;;;6.08;87.51;95021.88;5133701;27;20974;-56
2022/03/05 02:39:35;;;;;;;0.40;0.40;;;;;;;6.16;85.77;95016.19;5132789;27;20461;-56
2022/03/05 02:42:05;;;;;;;0.83;0.83;;;;;;;6.17;84.08;95019.59;5133656;27;20422;-56
2022/03/05 02:44:33;;;;;;;0.30;0.20;;;;;;;5.94;86.27;94986.50;5132925;27;20529;-56
2022/03/05 02:47:03;;;;;;;0.30;0.20;;;;;;;5.87;88.70;95030.59;5133851;27;20433;-56
2022/03/05 02:49:31;;;;;;;1.43;1.43;;;;;;;5.84;89.10;94996.09;5133183;27;20419;-56
2022/03/05 02:52:00;;;;;;;0.80;0.80;;;;;;;5.84;90.90;95012.66;5133050;27;20454;-56
2022/03/05 02:54:28;;;;;;;0.97;0.97;;;;;;;5.27;89.42;94909.75;5133357;27;20426;-56
2022/03/05 02:56:58;;;;;;;1.43;1.33;;;;;;;5.73;94.03;95024.91;5132925;27;20505;-56
2022/03/05 02:59:27;;;;;;;0.40;0.30;;;;;;;5.78;92.00;94996.03;5133115;27;20981;-56
2022/03/05 03:01:56;;;;;;;2.47;2.47;;;;;;;5.86;92.65;95029.03;5132119;27;20887;-56
2022/03/05 03:04:24;;;;;;;0.50;0.30;;;;;;;5.97;92.44;95027.28;5132929;27;20462;-56
2022/03/05 03:06:53;;;;;;;3.90;0.50;;;;;;;6.09;93.87;95023.47;5132818;27;20423;-56
2022/03/05 03:09:21;;;;;;;0.30;0.30;;;;;;;6.07;94.03;95008.97;5132435;27;20480;-56
2022/03/05 03:11:49;;;;;;;0.37;0.30;;;;;;;5.77;97.36;95026.00;5132874;28;20462;-56
2022/03/05 03:14:19;;;;;;;0.50;0.50;;;;;;;5.75;98.31;94990.47;5132955;28;20491;-55
2022/03/05 03:16:48;;;;;;;0.50;0.50;;;;;;;6.08;98.10;95029.78;5132349;28;20503;-55
2022/03/05 03:19:16;;;;;;;0.70;0.70;;;;;;;6.04;100.00;95028.69;5132518;27;20423;-55
2022/03/05 03:21:45;;;;;;;0.30;0.20;;;;;;;6.09;100.00;95020.03;5132337;27;20493;-55
2022/03/05 03:24:13;;;;;;;2.70;2.50;;;;;;;5.91;100.00;95029.06;5133179;27;20798;-55
2022/03/05 03:26:41;;;;;;;0.63;0.63;;;;;;;5.21;100.00;95036.88;5132553;28;20454;-55
2022/03/05 03:29:10;;;;;;;1.80;1.73;;;;;;;5.03;100.00;95035.28;5132072;28;20518;-55
2022/03/05 03:31:40;;;;;;;2.03;1.93;;;;;;;5.10;100.00;95038.56;5132722;28;20494;-55
2022/03/05 03:34:08;;;;;;;2.40;1.33;;;;;;;5.35;100.00;95032.03;5132311;28;20545;-56
2022/03/05 03:36:37;;;;;;;0.63;0.63;;;;;;;5.70;100.00;95014.06;5132729;28;20918;-55
2022/03/05 03:39:05;;;;;;;0.60;0.57;;;;;;;5.72;100.00;95030.38;5131720;28;20452;-55
2022/03/05 03:41:34;;;;;;;1.07;1.07;;;;;;;5.24;100.00;95009.31;5132842;27;20499;-55
2022/03/05 03:44:08;;;;;;;0.83;0.83;;;;;;;5.69;100.00;95030.91;5132344;28;20465;-55
2022/03/05 03:46:36;;;;;;;1.03;1.00;;;;;;;5.54;100.00;95028.84;5132259;27;20430;-55
2022/03/05 03:49:06;;;;;;;2.37;2.20;;;;;;;5.62;100.00;95035.53;5132661;28;20418;-55
2022/03/05 03:51:35;;;;;;;2.70;2.60;;;;;;;5.33;100.00;95029.66;5133030;27;20456;-56
2022/03/05 03:54:03;;;;;;;4.40;4.20;;;;;;;5.62;100.00;95028.44;5132314;27;20506;-54
2022/03/05 03:56:32;;;;;;;2.13;2.10;;;;;;;5.68;100.00;95032.72;5132233;28;20437;-56
2022/03/05 03:59:00;;;;;;;1.10;1.10;;;;;;;5.73;100.00;95032.00;5131856;27;20501;-56
2022/03/05 04:01:28;;;;;;;1.80;1.27;;;;;;;5.82;100.00;95029.72;5133016;28;20419;-55
2022/03/05 04:03:57;;;;;;;2.83;0.90;;;;;;;5.78;100.00;95011.00;5132824;28;20487;-55
2022/03/05 04:08:41;;;;;;;0.67;0.67;;;;;;;5.72;100.00;95012.78;5131579;28;20430;-55
2022/03/05 04:09:15;;;;;;;0.40;0.37;;;;;;;5.99;100.00;95039.16;5132560;27;20446;-55
2022/03/05 04:11:44;;;;;;;0.43;0.43;;;;;;;6.23;100.00;95037.81;5132253;27;20482;-55
2022/03/05 04:14:12;;;;;;;0.40;0.30;;;;;;;6.12;100.00;95016.94;5132158;28;20470;-54
2022/03/05 04:16:41;;;;;;;0.30;0.30;;;;;;;6.09;100.00;95027.94;5132256;28;20469;-55
2022/03/05 04:19:09;;;;;;;0.30;0.20;;;;;;;6.01;100.00;95047.59;5133691;27;20505;-55
2022/03/05 04:21:39;;;;;;;0.30;0.20;;;;;;;6.06;100.00;95033.69;5135497;27;20495;-55
2022/03/05 04:24:07;;;;;;;0.30;0.20;;;;;;;5.55;100.00;94975.25;5135766;27;20974;-55
2022/03/05 04:26:36;;;;;;;1.07;1.07;;;;;;;5.96;100.00;95050.16;5135863;27;20502;-55
2022/03/05 04:29:04;;;;;;;0.50;0.50;;;;;;;5.80;100.00;94993.16;5134961;27;20465;-55
2022/03/05 04:31:33;;;;;;;0.30;0.20;;;;;;;6.15;100.00;95047.97;5135466;27;20419;-55
2022/03/05 04:34:02;;;;;;;0.30;0.20;;;;;;;5.90;100.00;95026.66;5135958;27;20462;-55
2022/03/05 04:36:30;;;;;;;0.30;0.20;;;;;;;6.23;100.00;95048.34;5135952;27;20483;-54
2022/03/05 04:39:00;;;;;;;0.40;0.40;;;;;;;6.23;100.00;95043.06;5135172;27;20510;-56
2022/03/05 04:41:28;;;;;;;0.40;0.40;;;;;;;6.04;100.00;95043.66;5135560;27;20502;-55
2022/03/05 04:43:57;;;;;;;0.40;0.40;;;;;;;5.82;100.00;95048.13;5135926;27;20608;-56
2022/03/05 04:46:25;;;;;;;0.33;0.27;;;;;;;5.74;100.00;95052.00;5135446;27;20423;-56
2022/03/05 04:48:54;;;;;;;0.77;0.77;;;;;;;5.67;100.00;95033.75;5135665;27;20454;-55
2022/03/05 04:51:22;;;;;;;0.50;0.50;;;;;;;5.91;100.00;95052.75;5135446;27;20422;-55
2022/03/05 04:53:50;;;;;;;0.30;0.27;;;;;;;6.11;100.00;95046.91;5135025;27;21005;-55
2022/03/05 04:56:20;;;;;;;1.23;1.13;;;;;;;6.06;100.00;95045.00;5134859;27;20498;-54
2022/03/05 04:58:49;;;;;;;0.30;0.20;;;;;;;6.32;100.00;95053.97;5135401;27;20423;-55
2022/03/05 05:01:18;;;;;;;0.40;0.30;;;;;;;6.09;100.00;95062.94;5135392;27;20533;-55
2022/03/05 05:03:47;;;;;;;0.90;0.90;;;;;;;6.34;100.00;95055.31;5135665;27;20415;-55
2022/03/05 05:06:16;;;;;;;0.30;0.30;;;;;;;6.38;100.00;95059.00;5134905;27;20479;-55
2022/03/05 05:08:44;;;;;;;0.30;0.20;;;;;;;6.42;100.00;95056.69;5135342;27;20967;-55
2022/03/05 05:11:12;;;;;;;0.30;0.30;;;;;;;6.49;100.00;95061.75;5134984;27;20522;-56
2022/03/05 05:13:42;;;;;;;0.73;0.60;;;;;;;6.62;100.00;95061.34;5134552;27;20463;-55
2022/03/05 05:16:11;;;;;;;0.60;0.60;;;;;;;6.68;100.00;95055.09;5135125;27;20484;-55
2022/03/05 05:19:24;;;;;;;0.30;0.30;;;;;;;6.73;100.00;95061.16;5134740;27;20872;-55
2022/03/05 05:21:28;;;;;;;0.30;0.20;;;;;;;6.70;100.00;95055.63;5134648;27;20530;-55
2022/03/05 05:23:56;;;;;;;0.50;0.50;;;;;;;6.72;100.00;95066.69;5134770;27;20919;-55
2022/03/05 05:26:25;;;;;;;0.30;0.27;;;;;;;6.56;100.00;95036.78;5134978;27;20502;-54
2022/03/05 05:28:55;;;;;;;0.40;0.40;;;;;;;5.88;100.00;94937.50;5134291;27;20509;-55
2022/03/05 05:31:23;;;;;;;0.60;0.60;;;;;;;6.88;100.00;95079.72;5134631;27;20491;-56
2022/03/05 05:33:52;;;;;;;2.73;2.63;;;;;;;6.92;100.00;95085.28;5134748;27;20880;-56
2022/03/05 05:36:21;;;;;;;0.30;0.30;;;;;;;7.02;100.00;95085.38;5134678;27;20422;-56
2022/03/05 05:38:50;;;;;;;0.40;0.30;;;;;;;7.04;100.00;95080.63;5134399;27;20442;-56
2022/03/05 05:41:18;;;;;;;0.47;0.47;;;;;;;7.05;100.00;95082.22;5133985;27;20504;-56
2022/03/05 05:43:47;;;;;;;0.70;0.63;;;;;;;6.94;100.00;95086.63;5134303;27;20518;-57
2022/03/05 05:46:17;;;;;;;2.90;0.83;;;;;;;6.79;100.00;95094.41;5133933;27;20434;-57
2022/03/05 05:48:55;;;;;;;0.40;0.30;;;;;;;6.54;100.00;95090.75;5134157;27;20479;-57
2022/03/05 05:51:24;;;;;;;0.33;0.27;;;;;;;6.23;100.00;95094.91;5134385;27;20492;-57
2022/03/05 05:53:55;;;;;;;0.40;0.30;;;;;;;6.35;100.00;95104.25;5133624;27;20799;-57
2022/03/05 05:56:24;;;;;;;3.53;1.07;;;;;;;6.34;100.00;95100.03;5134264;27;20426;-57
2022/03/05 05:58:53;;;;;;;0.50;0.50;;;;;;;6.34;100.00;95102.69;5134262;27;20457;-57
2022/03/05 06:01:24;;;;;;;0.83;0.83;;;;;;;6.40;100.00;95101.66;5133449;27;20423;-57
2022/03/05 06:03:53;;;;;;;1.87;1.77;;;;;;;6.60;100.00;95108.19;5132440;27;20988;-56
2022/03/05 06:06:23;;;;;;;0.37;0.30;;;;;;;6.81;100.00;95109.94;5133774;27;20427;-56
2022/03/05 06:08:52;;;;;;;2.37;1.07;;;;;;;6.77;100.00;95111.50;5134108;27;20502;-56
2022/03/05 06:11:20;;;;;;;0.77;0.77;;;;;;;6.73;100.00;95103.28;5134103;27;20484;-57
2022/03/05 06:13:49;;;;;;;0.63;0.63;;;;;;;6.98;100.00;95110.66;5134154;27;20473;-57
2022/03/05 06:16:17;;;;;;;0.43;0.40;;;;;;;6.97;100.00;95122.22;5133578;27;20450;-57
2022/03/05 06:18:47;;;;;;;2.03;2.03;;;;;;;6.54;100.00;95130.25;5133639;27;20434;-57
2022/03/05 06:21:16;;;;;;;0.80;0.80;;;;;;;6.06;100.00;95133.66;5133000;27;20433;-56
2022/03/05 06:23:44;;;;;;;0.53;0.53;;;;;;;6.10;100.00;95130.28;5133841;27;20454;-56
2022/03/05 06:26:12;;;;;;;0.60;0.60;;;;;;;6.36;100.00;95128.75;5134143;27;20446;-56
2022/03/05 06:28:41;;;;;;;0.30;0.20;;;;;;;6.05;100.00;95138.13;5133842;27;20459;-56
2022/03/05 06:31:09;;;;;;;0.43;0.30;;;;;;;6.28;100.00;95126.53;5133649;27;20853;-56
2022/03/05 06:33:38;;;;;;;0.80;0.80;;;;;;;6.38;100.00;95135.34;5133131;27;20458;-56
2022/03/05 06:36:08;;;;;;;0.37;0.30;;;;;;;6.67;100.00;95135.91;5133497;27;20447;-56
2022/03/05 06:38:36;;;;;;;0.80;0.50;;;;;;;7.11;100.00;95133.91;5132938;27;20433;-56
2022/03/05 06:41:04;;;;;;;0.40;0.30;;;;;;;7.05;100.00;95140.22;5132414;27;20430;-57
2022/03/05 06:43:33;;;;;;;0.40;0.40;;;;;;;6.64;100.00;95140.88;5132585;27;20533;-56
2022/03/05 06:46:01;;;;;;;0.30;0.30;;;;;;;6.69;100.00;95148.81;5132910;27;20846;-56
2022/03/05 06:48:30;;;;;;;0.60;0.50;;;;;;;6.76;100.00;95154.69;5133142;27;20414;-55
2022/03/05 06:50:58;;;;;;;0.97;0.97;;;;;;;7.01;100.00;95150.44;5132987;27;20430;-56
2022/03/05 06:53:28;;;;;;;0.40;0.30;;;;;;;6.94;100.00;95147.22;5132667;27;20516;-55
2022/03/05 06:55:56;;;;;;;1.07;0.87;;;;;;;7.12;100.00;95151.31;5132908;27;20513;-56
2022/03/05 06:58:25;;;;;;;1.63;1.63;;;;;;;6.54;100.00;95156.56;5133180;27;20440;-55
2022/03/05 07:00:54;;;;;;;0.40;0.40;;;;;;;6.31;100.00;95162.91;5132697;27;20475;-56
2022/03/05 07:03:22;;;;;;;0.50;0.50;;;;;;;6.49;100.00;95164.41;5132874;27;20426;-56
2022/03/05 07:05:51;;;;;;;1.57;0.73;;;;;;;6.55;100.00;95168.69;5133313;27;20493;-56
2022/03/05 07:08:20;;;;;;;0.40;0.30;;;;;;;6.70;100.00;95171.50;5132921;27;20430;-56
2022/03/05 07:10:49;;;;;;;0.60;0.40;;;;;;;6.61;100.00;95168.50;5133130;27;20446;-56
2022/03/05 07:13:18;;;;;;;0.43;0.30;;;;;;;6.71;100.00;95173.06;5133041;28;20426;-56
2022/03/05 07:15:47;;;;;;;0.30;0.30;;;;;;;6.60;100.00;95169.56;5133028;28;20903;-56
2022/03/05 07:18:15;;;;;;;0.40;0.37;;;;;;;6.23;100.00;95143.06;5133056;28;20784;-56
2022/03/05 07:20:44;;;;;;;0.30;0.20;;;;;;;6.42;100.00;95174.34;5132684;28;20433;-56
2022/03/05 07:23:12;;;;;;;1.00;1.00;;;;;;;6.26;100.00;95171.53;5132233;28;20554;-56
2022/03/05 07:25:41;;;;;;;0.90;0.90;;;;;;;6.07;100.00;95143.16;5133568;28;20415;-56
2022/03/05 07:28:12;;;;;;;1.60;1.07;;;;;;;6.05;100.00;95143.38;5134396;27;20423;-56
2022/03/05 07:30:42;;;;;;;4.63;2.17;;;;;;;6.41;100.00;95165.66;5134350;28;20422;-57
2022/03/05 07:33:15;;;;;;;4.50;1.90;;;;;;;6.21;100.00;95110.94;5133281;28;20418;-56
2022/03/05 07:35:43;;;;;;;0.50;0.50;;;;;;;6.62;100.00;95169.28;5132944;28;20470;-56
2022/03/05 07:38:12;;;;;;;3.20;1.67;;;;;;;6.66;100.00;95162.47;5133255;27;20422;-57
2022/03/05 07:40:41;;;;;;;1.50;1.50;;;;;;;6.76;100.00;95157.31;5134003;28;20840;-56
2022/03/05 07:43:12;;;;;;;1.17;0.80;;;;;;;6.93;100.00;95158.78;5133133;28;20836;-56
2022/03/05 07:45:41;;;;;;;3.93;0.60;;;;;;;7.32;100.00;95158.59;5133287;28;20438;-56
2022/03/05 07:48:10;;;;;;;0.40;0.30;;;;;;;7.27;100.00;95150.66;5133179;28;20426;-57
2022/03/05 07:50:38;;;;;;;4.60;4.30;;;;;;;7.35;100.00;95164.16;5133064;28;20888;-55
2022/03/05 07:53:07;;;;;;;0.40;0.37;;;;;;;7.64;100.00;95151.41;5132940;27;20505;-57
2022/03/05 07:55:36;;;;;;;2.43;2.33;;;;;;;7.88;100.00;95139.44;5137133;27;20868;-57
2022/03/05 07:58:05;;;;;;;0.70;0.70;;;;;;;7.50;100.00;95098.34;5136794;27;20465;-57
2022/03/05 08:00:36;;;;;;;0.77;0.77;;;;;;;7.54;100.00;95167.97;5137260;27;20415;-57
2022/03/05 08:03:04;;;;;;;2.70;2.50;;;;;;;7.50;100.00;95163.47;5137462;27;20517;-58
2022/03/05 08:05:33;;;;;;;2.60;2.00;;;;;;;7.62;100.00;95153.53;5137508;27;20429;-57
2022/03/05 08:08:02;;;;;;;3.13;1.43;;;;;;;7.86;100.00;95151.31;5137005;27;20529;-57
2022/03/05 08:10:31;;;;;;;0.33;0.30;;;;;;;8.12;100.00;95126.63;5136905;27;20995;-56
2022/03/05 08:13:00;;;;;;;1.13;1.00;;;;;;;7.83;100.00;95149.16;5136808;27;20451;-56
2022/03/05 08:15:28;;;;;;;6.40;0.70;;;;;;;8.13;100.00;95144.03;5135909;27;20844;-56
2022/03/05 08:18:00;;;;;;;0.40;0.30;;;;;;;8.22;100.00;95118.75;5136399;27;20443;-58
2022/03/05 08:20:31;;;;;;;0.40;0.30;;;;;;;8.39;100.00;95151.03;5136183;27;20465;-57
2022/03/05 08:23:00;;;;;;;0.40;0.33;;;;;;;8.00;100.00;95144.50;5135040;27;20495;-56
2022/03/05 08:25:30;;;;;;;1.93;0.93;;;;;;;7.60;100.00;95145.09;5136081;27;20434;-57
2022/03/05 08:27:59;;;;;;;0.40;0.40;;;;;;;7.63;100.00;95126.91;5136159;27;20422;-56
2022/03/05 08:30:28;;;;;;;0.40;0.40;;;;;;;8.09;100.00;95138.50;5136110;27;20458;-56
2022/03/05 08:32:59;;;;;;;0.50;0.50;;;;;;;8.42;100.00;95139.97;5136172;27;20426;-57
2022/03/05 08:35:28;;;;;;;6.43;0.60;;;;;;;8.33;100.00;95133.59;5135565;27;20500;-55
2022/03/05 08:38:02;;;;;;;3.27;1.07;;;;;;;8.35;100.00;95149.19;5135590;27;20414;-56
2022/03/05 08:40:30;;;;;;;0.60;0.60;;;;;;;7.80;100.00;95131.22;5135457;27;20427;-57
2022/03/05 08:42:59;;;;;;;0.40;0.40;;;;;;;7.55;100.00;95122.13;5135624;27;20453;-56
2022/03/05 08:45:30;;;;;;;0.40;0.40;;;;;;;7.77;100.00;95147.56;5135300;27;20430;-55
2022/03/05 08:48:00;;;;;;;0.87;0.87;;;;;;;7.80;100.00;95139.91;5135030;27;20437;-56
2022/03/05 08:50:29;;;;;;;0.40;0.40;;;;;;;7.79;100.00;95143.63;5134808;27;20430;-56
2022/03/05 08:52:57;;;;;;;0.30;0.30;;;;;;;8.19;100.00;95141.19;5134967;27;20526;-56
2022/03/05 08:55:26;;;;;;;1.03;0.57;;;;;;;8.39;100.00;95145.75;5135047;27;20464;-55
2022/03/05 08:57:54;;;;;;;1.63;1.53;;;;;;;8.26;100.00;95143.56;5135316;27;20434;-55
2022/03/05 09:00:23;;;;;;;0.73;0.73;;;;;;;8.95;100.00;95146.69;5134710;27;20423;-56
2022/03/05 09:02:52;;;;;;;0.50;0.50;;;;;;;9.02;100.00;95134.00;5135274;27;20435;-56
2022/03/05 09:05:22;;;;;;;0.30;0.30;;;;;;;8.69;100.00;95142.41;5135656;27;20467;-56
2022/03/05 09:07:51;;;;;;;0.87;0.87;;;;;;;9.01;99.50;95144.81;5138263;27;20423;-56
2022/03/05 09:10:20;;;;;;;5.73;0.77;;;;;;;8.77;100.00;95147.19;5136686;27;20466;-56
2022/03/05 09:12:49;;;;;;;0.50;0.50;;;;;;;8.67;100.00;95145.31;5134843;27;20437;-56
2022/03/05 09:15:18;;;;;;;1.93;1.13;;;;;;;8.79;100.00;95151.16;5137291;27;20462;-56
2022/03/05 09:17:46;;;;;;;1.00;0.73;;;;;;;8.87;100.00;95147.19;5136898;27;20431;-55
2022/03/05 09:20:15;;;;;;;0.40;0.40;;;;;;;9.18;97.63;95153.31;5135214;27;20426;-55
2022/03/05 09:22:46;;;;;;;0.30;0.30;;;;;;;9.23;100.00;95143.53;5135223;27;20728;-57
2022/03/05 09:25:15;;;;;;;0.53;0.53;;;;;;;8.66;100.00;95138.44;5135425;27;20445;-54
2022/03/05 09:27:44;;;;;;;0.30;0.20;;;;;;;9.05;100.00;95140.59;5135000;27;20845;-55
2022/03/05 09:30:13;;;;;;;0.80;0.80;;;;;;;9.44;100.00;95152.22;5134475;27;20439;-55
2022/03/05 09:32:50;;;;;;;1.20;0.80;;;;;;;9.11;96.54;95150.16;5134415;27;20514;-55
2022/03/05 09:35:18;;;;;;;0.60;0.60;;;;;;;8.86;100.00;95154.31;5134455;27;20465;-55
2022/03/05 09:37:49;;;;;;;0.50;0.50;;;;;;;9.65;94.56;95147.72;5134197;27;20415;-54
2022/03/05 09:40:17;;;;;;;0.50;0.40;;;;;;;9.85;94.86;95147.69;5134376;27;20942;-54
2022/03/05 09:42:46;;;;;;;0.40;0.33;;;;;;;9.40;100.00;95153.84;5134277;27;20952;-55
2022/03/05 09:45:15;;;;;;;0.50;0.43;;;;;;;9.07;100.00;95149.88;5133895;27;20434;-55
2022/03/05 09:47:45;;;;;;;1.80;0.73;;;;;;;9.95;100.00;95156.41;5134110;27;20494;-54
2022/03/05 09:50:14;;;;;;;0.60;0.60;;;;;;;10.13;95.44;95141.81;5134105;27;20437;-55
2022/03/05 09:52:42;;;;;;;0.63;0.63;;;;;;;8.87;100.00;95129.50;5133834;27;20446;-54
2022/03/05 09:55:12;;;;;;;0.50;0.50;;;;;;;8.72;100.00;95155.09;5133979;27;20484;-54
2022/03/05 09:57:40;;;;;;;0.43;0.40;;;;;;;9.20;100.00;95152.00;5133774;27;20458;-54
2022/03/05 10:00:09;;;;;;;1.00;0.77;;;;;;;9.99;91.70;95149.50;5133304;27;20509;-54
2022/03/05 10:02:38;;;;;;;3.87;0.47;;;;;;;9.95;89.37;95145.81;5133763;27;20446;-54
2022/03/05 10:05:21;;;;;;;0.77;0.77;;;;;;;10.10;91.36;95151.06;5133967;27;20407;-53
2022/03/05 10:08:08;;;;;;;1.00;0.90;;;;;;;10.60;89.08;95136.84;5133671;27;20450;-53
2022/03/05 10:10:51;;;;;;;0.90;0.90;;;;;;;11.71;75.72;95129.94;5133537;27;20434;-53
2022/03/05 10:13:23;;;;;;;0.80;0.80;;;;;;;12.67;60.41;95122.44;5133373;27;20429;-53
2022/03/05 10:15:54;;;;;;;0.30;0.30;;;;;;;13.62;57.72;95124.75;5132725;27;20549;-53
2022/03/05 10:18:27;;;;;;;0.50;0.50;;;;;;;13.34;62.08;95121.22;5133176;27;20427;-53
2022/03/05 10:20:58;;;;;;;1.67;0.63;;;;;;;12.98;58.37;95122.03;5133604;27;20445;-54
2022/03/05 10:23:29;;;;;;;1.90;1.80;;;;;;;9.39;60.46;94628.56;5133181;27;20553;-53
2022/03/05 10:25:59;;;;;;;0.83;0.83;;;;;;;13.28;58.15;95114.38;5132321;27;20465;-54
2022/03/05 10:28:28;;;;;;;0.80;0.80;;;;;;;12.74;57.74;95079.56;5133490;27;20431;-54
2022/03/05 10:31:01;;;;;;;0.80;0.80;;;;;;;14.39;51.90;95107.09;5133448;27;20457;-55
2022/03/05 10:33:32;;;;;;;0.60;0.50;;;;;;;14.36;49.50;95113.00;5133068;27;20422;-55
2022/03/05 10:36:02;;;;;;;4.23;0.50;;;;;;;14.32;56.89;95104.00;5133327;27;20493;-55
2022/03/05 10:38:44;;;;;;;0.70;0.70;;;;;;;14.92;45.32;95095.81;5133148;27;20990;-56
2022/03/05 10:41:17;;;;;;;0.40;0.30;;;;;;;14.68;47.66;95096.06;5133016;27;20466;-55
2022/03/05 10:43:47;;;;;;;1.77;1.07;;;;;;;14.58;45.24;95093.63;5132965;27;20422;-56
2022/03/05 10:46:15;;;;;;;1.17;1.10;;;;;;;14.68;48.75;95096.06;5133153;27;20488;-56
2022/03/05 10:48:45;;;;;;;2.63;1.30;;;;;;;15.16;45.76;95086.44;5133216;27;20864;-57
2022/03/05 10:51:17;;;;;;;2.87;1.17;;;;;;;14.38;47.65;95080.72;5133162;27;20491;-56
2022/03/05 10:53:47;;;;;;;0.97;0.93;;;;;;;14.24;50.70;95079.91;5133103;27;20636;-56
2022/03/05 10:56:31;;;;;;;0.40;0.37;;;;;;;14.78;48.80;95082.50;5132718;27;20502;-56
2022/03/05 10:59:05;;;;;;;5.50;0.70;;;;;;;13.39;48.73;95085.75;5132739;27;20510;-56
2022/03/05 11:01:36;;;;;;;19.67;2.17;;;;;;;13.01;50.31;95100.16;5133097;27;20430;-56
2022/03/05 11:04:06;;;;;;;1.73;1.63;;;;;;;13.44;53.06;95079.53;5132869;27;20419;-56
2022/03/05 11:06:38;;;;;;;0.67;0.67;;;;;;;13.77;51.92;95092.53;5132529;27;20481;-57
2022/03/05 11:09:08;;;;;;;2.40;1.93;;;;;;;11.80;54.25;95037.97;5132667;27;20415;-56
2022/03/05 11:11:39;;;;;;;2.87;2.50;;;;;;;12.39;55.76;95077.38;5132971;27;20483;-56
2022/03/05 11:14:12;;;;;;;1.23;1.13;;;;;;;13.42;54.72;95074.50;5132663;28;20411;-57
2022/03/05 11:16:40;;;;;;;0.60;0.57;;;;;;;14.27;50.00;95052.66;5132454;28;20561;-56
2022/03/05 11:19:09;;;;;;;1.37;1.27;;;;;;;14.42;48.95;95063.81;5132605;28;20442;-57
2022/03/05 11:21:37;;;;;;;1.83;1.57;;;;;;;14.32;47.50;95055.25;5132667;28;20907;-58
2022/03/05 11:24:07;;;;;;;0.50;0.50;;;;;;;15.41;45.35;95046.84;5132388;28;20513;-58
2022/03/05 11:26:37;;;;;;;1.30;0.57;;;;;;;14.53;49.60;95045.72;5132318;28;20483;-58
2022/03/05 11:29:29;;;;;;;4.10;0.50;;;;;;;14.39;49.67;95043.09;5136443;27;20993;-59
2022/03/05 11:32:12;;;;;;;1.30;1.20;;;;;;;13.14;48.15;95046.25;5137114;27;20423;-61
2022/03/05 11:34:45;;;;;;;0.43;0.40;;;;;;;13.37;48.51;95018.69;5137125;27;20418;-61
2022/03/05 11:37:18;;;;;;;6.30;1.03;;;;;;;13.12;48.36;95027.91;5137005;27;20469;-60
2022/03/05 11:39:46;;;;;;;0.97;0.87;;;;;;;13.88;48.64;95021.19;5136626;27;20922;-61
2022/03/05 11:42:28;;;;;;;0.60;0.40;;;;;;;13.28;48.65;95018.56;5135989;27;20462;-63
2022/03/05 11:44:59;;;;;;;0.53;0.53;;;;;;;12.46;51.52;95020.13;5136660;27;20981;-62
2022/03/05 11:47:31;;;;;;;0.50;0.50;;;;;;;12.62;49.43;95023.38;5136996;27;20434;-61